Time;durP1;ratioP1;P1;durP2;ratioP2;P2;SDS_P1;SDS_P2;PMS_P1;PMS_P2;Temp;Humidity;BMP_temperature;BMP_pressure;BME280_temperature;BME280_humidity;BME280_pressure;Samples;Min_cycle;Max_cycle;Signal;HPM_P1;HPM_P2
2024/02/18 00:02:06;;;;;;;;;;;3.40;100.00;;;;;;5022264;28;19968;-68
2024/02/18 00:04:33;;;;;;;;;;;3.40;100.00;;;;;;5012369;28;19933;-68
2024/02/18 00:07:00;;;;;;;;;;;3.40;100.00;;;;;;5021155;28;19940;-68
2024/02/18 00:09:27;;;;;;;;;;;3.50;100.00;;;;;;5013647;28;19925;-68
2024/02/18 00:11:54;;;;;;;;;;;3.50;100.00;;;;;;4988301;28;20302;-69
2024/02/18 00:14:21;;;;;;;;;;;3.50;100.00;;;;;;5005851;28;20347;-68
2024/02/18 00:16:48;;;;;;;;;;;3.50;100.00;;;;;;4993704;28;19933;-68
2024/02/18 00:19:15;;;;;;;;;;;3.60;100.00;;;;;;5017122;28;20377;-68
2024/02/18 00:21:42;;;;;;;;;;;3.60;100.00;;;;;;5025296;28;19925;-68
2024/02/18 00:24:09;;;;;;;;;;;3.60;100.00;;;;;;5027001;28;20413;-69
2024/02/18 00:26:38;;;;;;;;;;;3.60;100.00;;;;;;5023651;28;19933;-69
2024/02/18 00:29:23;;;;;;;;;;;3.70;100.00;;;;;;5020478;28;19971;-68
2024/02/18 00:31:50;;;;;;;;;;;3.70;100.00;;;;;;5026859;28;19929;-68
2024/02/18 00:34:20;;;;;;;;;;;3.70;100.00;;;;;;5014904;28;19937;-68
2024/02/18 00:36:50;;;;;;;;;;;3.80;100.00;;;;;;5006915;28;19929;-68
2024/02/18 00:39:17;;;;;;;;;;;3.80;100.00;;;;;;5006729;28;19961;-68
2024/02/18 00:41:44;;;;;;;;;;;3.80;100.00;;;;;;4987494;28;19936;-68
2024/02/18 00:44:11;;;;;;;;;;;3.80;100.00;;;;;;5024584;28;20047;-68
2024/02/18 00:46:37;;;;;;;;;;;3.80;100.00;;;;;;5017779;28;19930;-69
2024/02/18 00:49:17;;;;;;;;;;;3.80;100.00;;;;;;5007085;28;19956;-68
2024/02/18 00:51:44;;;;;;;;;;;3.80;100.00;;;;;;5015103;28;19933;-68
2024/02/18 00:54:12;;;;;;;;;;;3.90;100.00;;;;;;5010678;28;19929;-68
2024/02/18 00:56:38;;;;;;;;;;;3.90;100.00;;;;;;5020611;28;19979;-68
2024/02/18 00:59:05;;;;;;;;;;;3.90;100.00;;;;;;5005188;28;20058;-68
2024/02/18 01:01:33;;;;;;;;;;;3.90;100.00;;;;;;5011580;28;19929;-68
2024/02/18 01:04:00;;;;;;;;;;;4.00;100.00;;;;;;5006481;28;19941;-68
2024/02/18 01:06:27;;;;;;;;;;;4.00;100.00;;;;;;5020685;28;19925;-68
2024/02/18 01:08:54;;;;;;;;;;;4.10;100.00;;;;;;4990296;28;19926;-68
2024/02/18 01:11:21;;;;;;;;;;;4.10;100.00;;;;;;4987528;28;20104;-68
2024/02/18 01:13:47;;;;;;;;;;;4.20;100.00;;;;;;5006149;28;19930;-68
2024/02/18 01:16:14;;;;;;;;;;;4.20;100.00;;;;;;5014271;28;19929;-68
2024/02/18 01:18:42;;;;;;;;;;;4.30;100.00;;;;;;5006474;28;19934;-68
2024/02/18 01:21:10;;;;;;;;;;;4.30;100.00;;;;;;5011566;28;20019;-68
2024/02/18 01:23:37;;;;;;;;;;;4.30;100.00;;;;;;4993255;28;20036;-68
2024/02/18 01:26:04;;;;;;;;;;;4.40;100.00;;;;;;5019390;28;20017;-68
2024/02/18 01:28:31;;;;;;;;;;;4.40;100.00;;;;;;5010270;28;19940;-68
2024/02/18 01:30:58;;;;;;;;;;;4.40;100.00;;;;;;5025209;28;20015;-68
2024/02/18 01:33:25;;;;;;;;;;;4.40;100.00;;;;;;5019991;28;20390;-68
2024/02/18 01:35:52;;;;;;;;;;;4.40;100.00;;;;;;5016104;28;20290;-68
2024/02/18 01:38:18;;;;;;;;;;;4.40;100.00;;;;;;5024418;28;20049;-68
2024/02/18 01:40:45;;;;;;;;;;;4.40;100.00;;;;;;5006824;28;20385;-68
2024/02/18 01:43:13;;;;;;;;;;;4.50;100.00;;;;;;5008693;28;19929;-68
2024/02/18 01:45:40;;;;;;;;;;;4.50;100.00;;;;;;4989162;28;19929;-68
2024/02/18 01:48:07;;;;;;;;;;;4.50;100.00;;;;;;5003664;28;19929;-68
2024/02/18 01:50:34;;;;;;;;;;;4.50;100.00;;;;;;5004858;28;19937;-68
2024/02/18 01:53:02;;;;;;;;;;;4.50;100.00;;;;;;5012740;28;19929;-68
2024/02/18 01:55:30;;;;;;;;;;;4.60;100.00;;;;;;5004692;28;19964;-68
2024/02/18 01:57:57;;;;;;;;;;;4.50;100.00;;;;;;5024219;28;19975;-68
2024/02/18 02:00:24;;;;;;;;;;;4.60;100.00;;;;;;5024529;28;20382;-68
2024/02/18 02:02:52;;;;;;;;;;;4.50;100.00;;;;;;5012331;28;20416;-68
2024/02/18 02:05:19;;;;;;;;;;;4.60;100.00;;;;;;5004610;28;19933;-68
2024/02/18 02:07:49;;;;;;;;;;;4.50;100.00;;;;;;5035563;28;20013;-68
2024/02/18 02:10:17;;;;;;;;;;;4.50;100.00;;;;;;5007848;28;19940;-68
2024/02/18 02:12:44;;;;;;;;;;;4.40;100.00;;;;;;5039255;28;20393;-68
2024/02/18 02:15:11;;;;;;;;;;;4.30;100.00;;;;;;5028700;28;20159;-68
2024/02/18 02:17:38;;;;;;;;;;;4.20;100.00;;;;;;5007366;28;19929;-68
2024/02/18 02:20:07;;;;;;;;;;;4.10;100.00;;;;;;5011797;28;19956;-68
2024/02/18 02:22:37;;;;;;;;;;;4.00;100.00;;;;;;5004347;28;20047;-68
2024/02/18 02:25:05;;;;;;;;;;;3.90;100.00;;;;;;5020223;28;19929;-68
2024/02/18 02:27:40;;;;;;;;;;;3.80;100.00;;;;;;5002912;28;20703;-68
2024/02/18 02:30:07;;;;;;;;;;;3.60;100.00;;;;;;5010708;28;19936;-68
2024/02/18 02:32:35;;;;;;;;;;;3.50;100.00;;;;;;5004531;28;19984;-68
2024/02/18 02:35:03;;;;;;;;;;;3.40;100.00;;;;;;5010488;28;19925;-68
2024/02/18 02:37:30;;;;;;;;;;;3.30;100.00;;;;;;5024836;28;20520;-68
2024/02/18 02:39:57;;;;;;;;;;;3.20;100.00;;;;;;5040213;28;20534;-68
2024/02/18 02:42:24;;;;;;;;;;;3.10;100.00;;;;;;5019394;28;19930;-68
2024/02/18 02:44:50;;;;;;;;;;;3.00;100.00;;;;;;5013966;28;20023;-68
2024/02/18 02:47:17;;;;;;;;;;;2.90;100.00;;;;;;5015247;28;19933;-68
2024/02/18 02:49:44;;;;;;;;;;;2.80;100.00;;;;;;5016506;28;19933;-68
2024/02/18 02:52:11;;;;;;;;;;;2.70;100.00;;;;;;4997118;28;19939;-68
2024/02/18 02:54:39;;;;;;;;;;;2.60;100.00;;;;;;5004735;28;19971;-68
2024/02/18 02:57:05;;;;;;;;;;;2.50;100.00;;;;;;4986226;28;19930;-68
2024/02/18 02:59:32;;;;;;;;;;;2.50;100.00;;;;;;4985683;28;19936;-68
2024/02/18 03:01:59;;;;;;;;;;;2.40;100.00;;;;;;5003937;28;19933;-68
2024/02/18 03:04:26;;;;;;;;;;;2.40;100.00;;;;;;5016682;28;20028;-68
2024/02/18 03:06:53;;;;;;;;;;;2.30;100.00;;;;;;5024925;28;19972;-68
2024/02/18 03:09:26;;;;;;;;;;;2.30;100.00;;;;;;5019329;28;19930;-68
2024/02/18 03:11:53;;;;;;;;;;;2.20;100.00;;;;;;5008196;28;19929;-68
2024/02/18 03:14:20;;;;;;;;;;;2.20;100.00;;;;;;5007728;28;19935;-68
2024/02/18 03:16:47;;;;;;;;;;;2.20;100.00;;;;;;5018492;28;19933;-68
2024/02/18 03:19:14;;;;;;;;;;;2.10;100.00;;;;;;5025259;28;20407;-68
2024/02/18 03:21:41;;;;;;;;;;;2.10;100.00;;;;;;5013425;28;20709;-68
2024/02/18 03:24:07;;;;;;;;;;;2.00;100.00;;;;;;5007233;28;19929;-68
2024/02/18 03:26:34;;;;;;;;;;;2.00;100.00;;;;;;5008479;28;20351;-68
2024/02/18 03:29:03;;;;;;;;;;;1.90;100.00;;;;;;5008722;28;19953;-68
2024/02/18 03:31:30;;;;;;;;;;;1.90;100.00;;;;;;5016479;28;19937;-67
2024/02/18 03:33:57;;;;;;;;;;;1.80;100.00;;;;;;4994942;28;19976;-68
2024/02/18 03:36:24;;;;;;;;;;;1.70;100.00;;;;;;5023387;28;19929;-68
2024/02/18 03:38:51;;;;;;;;;;;1.60;100.00;;;;;;5009496;28;19934;-68
2024/02/18 03:41:18;;;;;;;;;;;1.60;100.00;;;;;;5008130;28;20424;-68
2024/02/18 03:43:44;;;;;;;;;;;1.50;100.00;;;;;;5041958;28;20049;-68
2024/02/18 03:46:11;;;;;;;;;;;1.40;100.00;;;;;;5012134;28;19993;-68
2024/02/18 03:48:38;;;;;;;;;;;1.40;100.00;;;;;;5010959;28;20516;-68
2024/02/18 03:51:05;;;;;;;;;;;1.30;100.00;;;;;;5015742;28;19929;-68
2024/02/18 03:53:31;;;;;;;;;;;1.30;100.00;;;;;;4990244;28;20419;-68
2024/02/18 03:55:58;;;;;;;;;;;1.40;100.00;;;;;;5007650;28;19969;-68
2024/02/18 03:58:25;;;;;;;;;;;1.30;100.00;;;;;;5016630;28;19933;-68
2024/02/18 04:00:51;;;;;;;;;;;1.30;100.00;;;;;;5025402;28;19929;-68
2024/02/18 04:03:18;;;;;;;;;;;1.40;100.00;;;;;;5018332;28;19935;-68
2024/02/18 04:05:45;;;;;;;;;;;1.40;100.00;;;;;;5006941;28;20385;-68
2024/02/18 04:08:12;;;;;;;;;;;1.40;100.00;;;;;;5020521;28;19977;-68
2024/02/18 04:10:38;;;;;;;;;;;1.40;100.00;;;;;;5024390;28;19979;-68
2024/02/18 04:13:05;;;;;;;;;;;1.40;100.00;;;;;;5004812;28;19933;-68
2024/02/18 04:15:32;;;;;;;;;;;1.40;100.00;;;;;;5015367;28;19955;-68
2024/02/18 04:17:59;;;;;;;;;;;1.40;100.00;;;;;;5005114;28;19936;-68
2024/02/18 04:20:25;;;;;;;;;;;1.40;100.00;;;;;;5014405;28;19930;-68
2024/02/18 04:22:52;;;;;;;;;;;1.40;100.00;;;;;;5008619;28;19956;-68
2024/02/18 04:25:19;;;;;;;;;;;1.50;100.00;;;;;;5029680;28;19933;-68
2024/02/18 04:27:46;;;;;;;;;;;1.50;100.00;;;;;;5015592;28;19925;-68
2024/02/18 04:30:13;;;;;;;;;;;1.60;100.00;;;;;;5027093;28;19929;-68
2024/02/18 04:32:40;;;;;;;;;;;1.60;100.00;;;;;;5013553;28;19929;-68
2024/02/18 04:35:07;;;;;;;;;;;1.70;100.00;;;;;;5013320;28;19940;-68
2024/02/18 04:37:33;;;;;;;;;;;1.70;100.00;;;;;;5021186;28;20493;-68
2024/02/18 04:40:00;;;;;;;;;;;1.80;100.00;;;;;;5006986;28;19929;-68
2024/02/18 04:42:27;;;;;;;;;;;1.90;100.00;;;;;;5035527;28;19939;-68
2024/02/18 04:44:54;;;;;;;;;;;1.90;100.00;;;;;;5004883;28;19936;-68
2024/02/18 04:47:22;;;;;;;;;;;2.00;100.00;;;;;;5002272;28;20032;-68
2024/02/18 04:49:49;;;;;;;;;;;2.00;100.00;;;;;;5024808;28;19929;-68
2024/02/18 04:52:16;;;;;;;;;;;2.10;100.00;;;;;;5019923;28;20572;-68
2024/02/18 04:54:43;;;;;;;;;;;2.10;100.00;;;;;;5021262;28;19929;-68
2024/02/18 04:57:09;;;;;;;;;;;2.10;100.00;;;;;;5007522;28;20642;-68
2024/02/18 04:59:36;;;;;;;;;;;2.10;100.00;;;;;;5023597;28;19936;-68
2024/02/18 05:02:03;;;;;;;;;;;2.10;100.00;;;;;;4995247;28;19945;-68
2024/02/18 05:04:31;;;;;;;;;;;2.10;100.00;;;;;;4989326;28;19936;-68
2024/02/18 05:06:58;;;;;;;;;;;2.20;100.00;;;;;;5013670;28;19929;-68
2024/02/18 05:09:26;;;;;;;;;;;2.20;100.00;;;;;;4994905;28;19929;-68
2024/02/18 05:11:54;;;;;;;;;;;2.20;100.00;;;;;;5015655;28;20616;-68
2024/02/18 05:14:21;;;;;;;;;;;2.20;100.00;;;;;;5020520;28;19929;-68
2024/02/18 05:16:48;;;;;;;;;;;2.20;100.00;;;;;;5021550;28;19928;-68
2024/02/18 05:19:15;;;;;;;;;;;2.20;100.00;;;;;;5006900;28;20007;-68
2024/02/18 05:21:43;;;;;;;;;;;2.30;100.00;;;;;;5011197;28;19940;-68
2024/02/18 05:24:10;;;;;;;;;;;2.30;100.00;;;;;;4997769;28;20349;-68
2024/02/18 05:26:36;;;;;;;;;;;2.30;100.00;;;;;;5006817;28;20302;-68
2024/02/18 05:29:03;;;;;;;;;;;2.30;100.00;;;;;;5023313;28;19976;-68
2024/02/18 05:31:30;;;;;;;;;;;2.30;100.00;;;;;;4989072;28;19930;-68
2024/02/18 05:33:57;;;;;;;;;;;2.40;100.00;;;;;;4986346;28;20008;-68
2024/02/18 05:36:24;;;;;;;;;;;2.40;100.00;;;;;;5006343;28;19937;-68
2024/02/18 05:38:51;;;;;;;;;;;2.40;100.00;;;;;;5009392;28;19933;-68
2024/02/18 05:41:18;;;;;;;;;;;2.40;100.00;;;;;;5018148;28;19980;-67
2024/02/18 05:43:44;;;;;;;;;;;2.50;100.00;;;;;;5020632;28;20536;-67
2024/02/18 05:46:11;;;;;;;;;;;2.60;100.00;;;;;;5004157;28;19929;-67
2024/02/18 05:48:38;;;;;;;;;;;2.60;100.00;;;;;;5000516;28;20461;-67
2024/02/18 05:51:06;;;;;;;;;;;2.60;100.00;;;;;;5021644;28;19936;-67
2024/02/18 05:53:33;;;;;;;;;;;2.60;100.00;;;;;;5021100;28;19937;-67
2024/02/18 05:56:01;;;;;;;;;;;2.70;100.00;;;;;;5023968;28;20330;-67
2024/02/18 05:58:27;;;;;;;;;;;2.70;100.00;;;;;;5016847;28;20441;-68
2024/02/18 06:00:54;;;;;;;;;;;2.70;100.00;;;;;;5003268;28;20655;-67
2024/02/18 06:03:21;;;;;;;;;;;2.70;100.00;;;;;;4994252;28;19929;-67
2024/02/18 06:05:48;;;;;;;;;;;2.70;100.00;;;;;;5040555;28;19991;-68
2024/02/18 06:08:15;;;;;;;;;;;2.70;100.00;;;;;;5005903;28;20389;-68
2024/02/18 06:10:41;;;;;;;;;;;2.70;100.00;;;;;;4991930;28;20008;-68
2024/02/18 06:13:08;;;;;;;;;;;2.70;100.00;;;;;;5010880;28;19976;-68
2024/02/18 06:15:35;;;;;;;;;;;2.70;100.00;;;;;;5034861;28;19929;-68
2024/02/18 06:18:02;;;;;;;;;;;2.70;100.00;;;;;;5021206;28;19935;-67
2024/02/18 06:20:29;;;;;;;;;;;2.80;100.00;;;;;;4998531;28;19935;-67
2024/02/18 06:22:56;;;;;;;;;;;2.80;100.00;;;;;;5024160;28;19932;-67
2024/02/18 06:25:23;;;;;;;;;;;2.90;100.00;;;;;;5018763;28;20489;-68
2024/02/18 06:27:50;;;;;;;;;;;2.90;100.00;;;;;;5002294;28;19982;-67
2024/02/18 06:30:18;;;;;;;;;;;2.90;100.00;;;;;;5011023;28;20007;-68
2024/02/18 06:32:44;;;;;;;;;;;3.00;100.00;;;;;;4990610;28;20712;-68
2024/02/18 06:35:11;;;;;;;;;;;3.00;100.00;;;;;;5001555;28;20338;-68
2024/02/18 06:37:39;;;;;;;;;;;3.10;100.00;;;;;;5024936;28;19936;-68
2024/02/18 06:40:06;;;;;;;;;;;3.10;100.00;;;;;;5023085;28;19929;-68
2024/02/18 06:42:33;;;;;;;;;;;3.10;100.00;;;;;;4990733;28;20354;-68
2024/02/18 06:45:00;;;;;;;;;;;3.10;100.00;;;;;;5024691;28;19929;-68
2024/02/18 06:47:26;;;;;;;;;;;3.20;100.00;;;;;;5027787;28;19929;-68
2024/02/18 06:49:53;;;;;;;;;;;3.20;100.00;;;;;;5023055;28;20795;-68
2024/02/18 06:52:21;;;;;;;;;;;3.20;100.00;;;;;;5010922;28;19936;-68
2024/02/18 06:54:48;;;;;;;;;;;3.30;100.00;;;;;;5022738;28;19929;-68
2024/02/18 06:57:15;;;;;;;;;;;3.30;100.00;;;;;;5028890;28;19932;-68
2024/02/18 06:59:42;;;;;;;;;;;3.30;100.00;;;;;;5005502;28;20087;-68
2024/02/18 07:02:09;;;;;;;;;;;3.40;100.00;;;;;;5022838;28;19929;-68
2024/02/18 07:04:36;;;;;;;;;;;3.40;100.00;;;;;;4989927;28;19937;-68
2024/02/18 07:07:03;;;;;;;;;;;3.50;100.00;;;;;;5019278;28;19968;-68
2024/02/18 07:09:30;;;;;;;;;;;3.50;100.00;;;;;;4995761;28;19936;-68
2024/02/18 07:11:57;;;;;;;;;;;3.50;100.00;;;;;;5006531;28;19929;-68
2024/02/18 07:14:23;;;;;;;;;;;3.60;100.00;;;;;;5007587;28;19933;-68
2024/02/18 07:16:50;;;;;;;;;;;3.60;100.00;;;;;;5008789;28;19929;-68
2024/02/18 07:19:17;;;;;;;;;;;3.70;100.00;;;;;;5008981;28;20070;-68
2024/02/18 07:21:44;;;;;;;;;;;3.80;100.00;;;;;;5007971;28;20318;-68
2024/02/18 07:24:11;;;;;;;;;;;3.80;100.00;;;;;;5008585;28;19929;-68
2024/02/18 07:26:38;;;;;;;;;;;3.90;100.00;;;;;;5009342;28;20393;-68
2024/02/18 07:29:05;;;;;;;;;;;3.90;100.00;;;;;;5007724;28;19929;-68
2024/02/18 07:31:32;;;;;;;;;;;3.90;100.00;;;;;;5007805;28;20044;-68
2024/02/18 07:33:59;;;;;;;;;;;4.00;100.00;;;;;;5006152;28;20046;-68
2024/02/18 07:36:26;;;;;;;;;;;4.10;100.00;;;;;;5024822;28;20591;-68
2024/02/18 07:38:55;;;;;;;;;;;4.10;100.00;;;;;;5008041;28;19934;-68
2024/02/18 07:41:24;;;;;;;;;;;4.20;100.00;;;;;;5010949;28;19929;-71
2024/02/18 07:43:51;;;;;;;;;;;4.20;100.00;;;;;;5009509;28;19937;-71
2024/02/18 07:46:19;;;;;;;;;;;4.30;100.00;;;;;;5009127;28;19972;-71
2024/02/18 07:48:45;;;;;;;;;;;4.30;100.00;;;;;;5008482;28;19948;-71
2024/02/18 07:51:12;;;;;;;;;;;4.40;100.00;;;;;;4999400;28;19949;-71
2024/02/18 07:53:39;;;;;;;;;;;4.50;100.00;;;;;;4994430;28;19980;-72
2024/02/18 07:56:06;;;;;;;;;;;4.50;100.00;;;;;;5004285;28;20063;-71
2024/02/18 07:58:33;;;;;;;;;;;4.60;100.00;;;;;;5025312;28;19929;-71
2024/02/18 08:00:59;;;;;;;;;;;4.70;100.00;;;;;;5014872;28;19932;-71
2024/02/18 08:03:26;;;;;;;;;;;4.70;100.00;;;;;;5010425;28;19937;-71
2024/02/18 08:05:53;;;;;;;;;;;4.80;100.00;;;;;;5002051;28;20044;-71
2024/02/18 08:08:20;;;;;;;;;;;4.90;100.00;;;;;;5019300;28;19929;-71
2024/02/18 08:10:47;;;;;;;;;;;4.90;100.00;;;;;;5023271;28;19929;-71
2024/02/18 08:13:14;;;;;;;;;;;5.00;100.00;;;;;;5025563;28;19936;-71
2024/02/18 08:15:40;;;;;;;;;;;5.10;100.00;;;;;;5022709;28;19929;-70
2024/02/18 08:18:08;;;;;;;;;;;5.10;100.00;;;;;;4987553;28;19929;-71
2024/02/18 08:20:37;;;;;;;;;;;5.10;100.00;;;;;;5018265;28;19929;-71
2024/02/18 08:23:07;;;;;;;;;;;5.10;100.00;;;;;;5009631;28;19955;-71
2024/02/18 08:25:34;;;;;;;;;;;5.20;100.00;;;;;;5024986;28;20626;-71
2024/02/18 08:28:01;;;;;;;;;;;5.20;100.00;;;;;;5006010;28;19944;-71
2024/02/18 08:30:28;;;;;;;;;;;5.30;100.00;;;;;;5008022;28;19933;-70
2024/02/18 08:32:55;;;;;;;;;;;5.30;100.00;;;;;;5031996;28;19933;-70
2024/02/18 08:35:23;;;;;;;;;;;5.40;100.00;;;;;;4999327;28;19983;-70
2024/02/18 08:37:50;;;;;;;;;;;5.40;100.00;;;;;;5022386;28;20014;-71
2024/02/18 08:40:17;;;;;;;;;;;5.50;100.00;;;;;;5002700;28;19941;-71
2024/02/18 08:42:44;;;;;;;;;;;5.60;100.00;;;;;;5014617;28;19952;-76
2024/02/18 08:45:11;;;;;;;;;;;5.70;100.00;;;;;;5023919;28;19929;-71
2024/02/18 08:47:38;;;;;;;;;;;5.70;100.00;;;;;;5021214;28;19936;-71
2024/02/18 08:50:05;;;;;;;;;;;5.80;100.00;;;;;;5020918;28;19940;-71
2024/02/18 08:52:32;;;;;;;;;;;6.00;100.00;;;;;;5020480;28;19928;-71
2024/02/18 08:54:58;;;;;;;;;;;6.10;100.00;;;;;;5026971;28;19979;-71
2024/02/18 08:57:25;;;;;;;;;;;6.20;100.00;;;;;;5018298;28;19929;-71
2024/02/18 08:59:52;;;;;;;;;;;6.30;100.00;;;;;;5010159;28;20342;-71
2024/02/18 09:02:19;;;;;;;;;;;6.40;100.00;;;;;;5017089;28;19929;-70
2024/02/18 09:04:46;;;;;;;;;;;6.40;100.00;;;;;;5007181;28;19930;-71
2024/02/18 09:07:13;;;;;;;;;;;6.50;100.00;;;;;;5020671;28;20031;-71
2024/02/18 09:09:39;;;;;;;;;;;6.50;100.00;;;;;;5009547;28;19929;-72
2024/02/18 09:12:19;;;;;;;;;;;6.70;100.00;;;;;;5005848;28;20766;-72
2024/02/18 09:14:47;;;;;;;;;;;6.80;100.00;;;;;;5004973;28;19979;-70
2024/02/18 09:17:17;;;;;;;;;;;6.90;100.00;;;;;;5014920;28;19929;-70
2024/02/18 09:19:47;;;;;;;;;;;6.90;100.00;;;;;;5003680;28;19937;-70
2024/02/18 09:22:14;;;;;;;;;;;7.00;100.00;;;;;;5003410;28;19939;-70
2024/02/18 09:24:44;;;;;;;;;;;6.80;100.00;;;;;;5037784;28;19933;-70
2024/02/18 09:27:11;;;;;;;;;;;6.90;100.00;;;;;;5018140;28;19948;-70
2024/02/18 09:29:38;;;;;;;;;;;6.90;100.00;;;;;;5018578;28;19980;-70
2024/02/18 09:32:05;;;;;;;;;;;7.00;100.00;;;;;;4994286;28;20966;-70
2024/02/18 09:34:31;;;;;;;;;;;7.00;100.00;;;;;;5010763;28;19929;-70
2024/02/18 09:36:58;;;;;;;;;;;7.10;100.00;;;;;;5012770;28;20035;-70
2024/02/18 09:39:25;;;;;;;;;;;7.10;100.00;;;;;;5018162;28;20575;-71
2024/02/18 09:41:52;;;;;;;;;;;7.10;100.00;;;;;;5011514;28;19929;-70
2024/02/18 09:44:21;;;;;;;;;;;7.20;100.00;;;;;;5012064;28;19929;-72
2024/02/18 09:46:49;;;;;;;;;;;7.20;100.00;;;;;;5012940;28;19936;-71
2024/02/18 09:49:17;;;;;;;;;;;7.20;100.00;;;;;;5008684;28;19933;-71
2024/02/18 09:51:44;;;;;;;;;;;7.20;100.00;;;;;;5013025;28;20887;-71
2024/02/18 09:54:11;;;;;;;;;;;7.30;100.00;;;;;;5011009;28;19929;-69
2024/02/18 09:56:37;;;;;;;;;;;7.30;100.00;;;;;;5005536;28;20002;-68
2024/02/18 09:59:04;;;;;;;;;;;7.30;100.00;;;;;;5006366;28;19933;-69
2024/02/18 10:01:32;;;;;;;;;;;7.40;100.00;;;;;;5004344;28;20040;-69
2024/02/18 10:03:59;;;;;;;;;;;7.40;100.00;;;;;;5000773;28;19937;-69
2024/02/18 10:06:26;;;;;;;;;;;7.50;100.00;;;;;;4989180;28;20786;-69
2024/02/18 10:08:57;;;;;;;;;;;7.50;100.00;;;;;;5000143;28;19930;-69
2024/02/18 10:11:23;;;;;;;;;;;7.50;100.00;;;;;;5006109;28;20620;-72
2024/02/18 10:13:56;;;;;;;;;;;7.50;100.00;;;;;;5004832;28;20084;-72
2024/02/18 10:16:22;;;;;;;;;;;7.60;100.00;;;;;;5006083;28;20334;-72
2024/02/18 10:18:49;;;;;;;;;;;7.60;100.00;;;;;;4987048;28;19929;-72
2024/02/18 10:21:16;;;;;;;;;;;7.60;100.00;;;;;;5000667;28;20554;-72
2024/02/18 10:23:43;;;;;;;;;;;7.60;100.00;;;;;;5003420;28;20026;-72
2024/02/18 10:26:12;;;;;;;;;;;7.60;100.00;;;;;;4986380;28;20449;-69
2024/02/18 10:28:39;;;;;;;;;;;7.60;100.00;;;;;;5000624;28;19929;-69
2024/02/18 10:31:09;;;;;;;;;;;7.60;100.00;;;;;;4998754;28;20492;-69
2024/02/18 10:33:37;;;;;;;;;;;7.50;100.00;;;;;;5001912;28;20378;-69
2024/02/18 10:36:11;;;;;;;;;;;7.50;100.00;;;;;;4998799;28;19933;-69
2024/02/18 10:38:45;;;;;;;;;;;7.50;100.00;;;;;;5001367;28;20295;-69
2024/02/18 10:41:15;;;;;;;;;;;7.50;100.00;;;;;;5003146;28;19937;-69
2024/02/18 10:43:50;;;;;;;;;;;7.40;100.00;;;;;;5005562;28;19929;-69
2024/02/18 10:46:21;;;;;;;;;;;7.40;100.00;;;;;;4998837;28;19934;-69
2024/02/18 10:48:53;;;;;;;;;;;7.40;100.00;;;;;;4999183;28;20700;-72
2024/02/18 10:51:26;;;;;;;;;;;7.40;100.00;;;;;;5001557;28;20371;-72
2024/02/18 10:53:57;;;;;;;;;;;7.40;100.00;;;;;;5013727;28;20043;-72
2024/02/18 10:56:24;;;;;;;;;;;7.40;100.00;;;;;;5000347;28;19936;-69
2024/02/18 10:58:57;;;;;;;;;;;7.50;100.00;;;;;;4999995;28;19953;-69
2024/02/18 11:01:25;;;;;;;;;;;7.50;100.00;;;;;;4996733;28;19999;-69
2024/02/18 11:03:59;;;;;;;;;;;7.50;100.00;;;;;;4997879;28;19929;-69
2024/02/18 11:06:28;;;;;;;;;;;7.60;100.00;;;;;;4997201;28;19929;-69
2024/02/18 11:08:56;;;;;;;;;;;7.70;100.00;;;;;;4994157;28;19968;-69
2024/02/18 11:11:23;;;;;;;;;;;7.70;100.00;;;;;;4996531;28;19930;-69
2024/02/18 11:13:50;;;;;;;;;;;7.80;100.00;;;;;;4996081;28;19929;-69
2024/02/18 11:16:19;;;;;;;;;;;7.80;100.00;;;;;;4996657;28;20394;-69
2024/02/18 11:18:46;;;;;;;;;;;7.80;100.00;;;;;;4997414;28;20020;-69
2024/02/18 11:21:14;;;;;;;;;;;7.80;100.00;;;;;;4995556;28;20413;-69
2024/02/18 11:24:08;;;;;;;;;;;7.90;100.00;;;;;;4998479;28;20437;-69
2024/02/18 11:26:34;;;;;;;;;;;8.00;100.00;;;;;;4993946;28;20382;-69
2024/02/18 11:29:02;;;;;;;;;;;8.20;100.00;;;;;;5004093;28;20024;-69
2024/02/18 11:31:30;;;;;;;;;;;8.30;100.00;;;;;;5004018;28;19960;-69
2024/02/18 11:33:57;;;;;;;;;;;8.40;100.00;;;;;;4997921;28;19933;-69
2024/02/18 11:36:26;;;;;;;;;;;8.50;100.00;;;;;;5003387;28;19936;-69
2024/02/18 11:38:56;;;;;;;;;;;8.50;100.00;;;;;;5001038;28;20466;-69
2024/02/18 11:41:32;;;;;;;;;;;8.60;100.00;;;;;;5000868;28;19947;-69
2024/02/18 11:44:05;;;;;;;;;;;8.60;100.00;;;;;;5000717;28;19930;-69
2024/02/18 11:46:32;;;;;;;;;;;8.70;100.00;;;;;;5001114;28;19969;-69
2024/02/18 11:48:59;;;;;;;;;;;8.70;100.00;;;;;;5002729;28;20017;-69
2024/02/18 11:51:28;;;;;;;;;;;8.70;100.00;;;;;;5005622;28;19960;-69
2024/02/18 11:53:56;;;;;;;;;;;8.70;100.00;;;;;;5002388;28;19948;-69
2024/02/18 11:56:22;;;;;;;;;;;8.70;100.00;;;;;;5003269;28;19930;-69
2024/02/18 11:58:50;;;;;;;;;;;8.70;100.00;;;;;;5002548;28;20421;-70
2024/02/18 12:01:20;;;;;;;;;;;8.70;100.00;;;;;;5006312;28;19933;-69
2024/02/18 12:03:47;;;;;;;;;;;8.70;100.00;;;;;;5002784;28;19934;-69
2024/02/18 12:06:14;;;;;;;;;;;8.80;100.00;;;;;;5005342;28;19933;-69
2024/02/18 12:08:41;;;;;;;;;;;8.70;100.00;;;;;;5015330;28;19925;-69
2024/02/18 12:11:08;;;;;;;;;;;8.70;100.00;;;;;;5008337;28;19937;-69
2024/02/18 12:13:34;;;;;;;;;;;8.80;100.00;;;;;;5004422;28;19956;-69
2024/02/18 12:16:05;;;;;;;;;;;8.80;100.00;;;;;;4998526;28;20046;-70
2024/02/18 12:18:32;;;;;;;;;;;8.80;100.00;;;;;;5000985;28;19929;-67
2024/02/18 12:21:00;;;;;;;;;;;8.80;100.00;;;;;;5012841;28;19925;-68
2024/02/18 12:23:26;;;;;;;;;;;8.80;100.00;;;;;;5002146;28;19929;-66
2024/02/18 12:25:56;;;;;;;;;;;8.90;100.00;;;;;;4988186;28;19930;-70
2024/02/18 12:28:23;;;;;;;;;;;8.90;100.00;;;;;;5005649;28;20580;-68
2024/02/18 12:30:50;;;;;;;;;;;8.90;100.00;;;;;;5005139;28;20089;-69
2024/02/18 12:33:18;;;;;;;;;;;8.90;100.00;;;;;;5002995;28;20560;-68
2024/02/18 12:35:45;;;;;;;;;;;8.90;100.00;;;;;;5003193;28;19953;-69
2024/02/18 12:38:13;;;;;;;;;;;8.90;100.00;;;;;;5003406;28;19929;-69
2024/02/18 12:40:40;;;;;;;;;;;9.00;100.00;;;;;;4988112;28;19929;-68
2024/02/18 12:43:07;;;;;;;;;;;9.00;100.00;;;;;;4999718;28;19940;-68
2024/02/18 12:45:37;;;;;;;;;;;9.00;100.00;;;;;;5000118;28;20048;-69
2024/02/18 12:48:14;;;;;;;;;;;9.00;100.00;;;;;;5003343;28;19983;-69
2024/02/18 12:50:43;;;;;;;;;;;9.00;100.00;;;;;;4997064;28;20027;-68
2024/02/18 12:53:10;;;;;;;;;;;9.00;100.00;;;;;;5002158;28;20044;-69
2024/02/18 12:55:38;;;;;;;;;;;9.00;100.00;;;;;;5003348;28;19936;-68
2024/02/18 12:58:05;;;;;;;;;;;9.00;100.00;;;;;;5003887;28;19936;-73
2024/02/18 13:00:32;;;;;;;;;;;9.00;100.00;;;;;;5005184;28;20302;-71
2024/02/18 13:03:01;;;;;;;;;;;9.00;100.00;;;;;;5007029;28;19929;-71
2024/02/18 13:05:29;;;;;;;;;;;9.00;100.00;;;;;;5006191;28;20296;-70
2024/02/18 13:07:57;;;;;;;;;;;9.00;100.00;;;;;;5005343;28;20541;-69
2024/02/18 13:10:24;;;;;;;;;;;9.00;100.00;;;;;;5020071;28;19937;-69
2024/02/18 13:12:51;;;;;;;;;;;9.00;100.00;;;;;;5000790;28;19961;-71
2024/02/18 13:15:18;;;;;;;;;;;9.00;100.00;;;;;;5000871;28;19926;-70
2024/02/18 13:17:51;;;;;;;;;;;9.00;100.00;;;;;;5015291;28;19929;-71
2024/02/18 13:20:18;;;;;;;;;;;8.90;100.00;;;;;;5000567;28;19930;-72
2024/02/18 13:22:48;;;;;;;;;;;8.90;100.00;;;;;;5002579;28;19933;-72
2024/02/18 13:25:15;;;;;;;;;;;8.90;100.00;;;;;;5002387;28;20690;-72
2024/02/18 13:27:42;;;;;;;;;;;8.90;100.00;;;;;;4989214;28;20334;-72
2024/02/18 13:30:09;;;;;;;;;;;8.90;100.00;;;;;;5009322;28;19934;-72
2024/02/18 13:32:36;;;;;;;;;;;8.90;100.00;;;;;;5003525;28;19979;-71
2024/02/18 13:35:03;;;;;;;;;;;8.90;100.00;;;;;;5001833;28;20381;-72
2024/02/18 13:37:30;;;;;;;;;;;8.90;100.00;;;;;;5004113;28;19952;-72
2024/02/18 13:39:57;;;;;;;;;;;8.90;100.00;;;;;;5000402;28;19936;-73
2024/02/18 13:42:23;;;;;;;;;;;8.90;100.00;;;;;;5001346;28;20016;-73
2024/02/18 13:44:50;;;;;;;;;;;8.80;100.00;;;;;;4998815;28;19929;-73
2024/02/18 13:47:20;;;;;;;;;;;8.90;100.00;;;;;;4999955;28;19929;-73
2024/02/18 13:49:47;;;;;;;;;;;8.90;100.00;;;;;;5001792;28;19936;-73
2024/02/18 13:52:14;;;;;;;;;;;8.90;100.00;;;;;;5009801;28;20030;-73
2024/02/18 13:54:41;;;;;;;;;;;8.90;100.00;;;;;;4997845;28;20023;-73
2024/02/18 13:57:08;;;;;;;;;;;8.90;100.00;;;;;;5002169;28;20024;-73
2024/02/18 13:59:36;;;;;;;;;;;8.90;100.00;;;;;;4999495;28;19929;-72
2024/02/18 14:02:05;;;;;;;;;;;8.90;100.00;;;;;;5002970;28;20643;-72
2024/02/18 14:04:32;;;;;;;;;;;8.90;100.00;;;;;;5004799;28;20016;-72
2024/02/18 14:06:59;;;;;;;;;;;8.90;100.00;;;;;;5000748;28;20099;-72
2024/02/18 14:09:26;;;;;;;;;;;8.90;100.00;;;;;;5003105;28;19936;-72
2024/02/18 14:11:53;;;;;;;;;;;8.80;100.00;;;;;;5004793;28;20050;-72
2024/02/18 14:14:19;;;;;;;;;;;8.80;100.00;;;;;;5003648;28;20003;-73
2024/02/18 14:16:47;;;;;;;;;;;8.80;100.00;;;;;;5008524;28;20080;-73
2024/02/18 14:19:15;;;;;;;;;;;8.80;100.00;;;;;;5005322;28;19929;-73